createdAt,value
2022-12-25T00:01:21.938Z,99634.20
2022-12-25T00:03:51.950Z,99637.41
2022-12-25T00:06:21.476Z,99641.11
2022-12-25T00:08:50.244Z,99640.36
2022-12-25T00:11:20.388Z,99643.11
2022-12-25T00:13:49.459Z,99645.18
2022-12-25T00:16:24.463Z,99648.07
2022-12-25T00:18:54.385Z,99649.50
2022-12-25T00:21:23.126Z,99648.65
2022-12-25T00:23:56.943Z,99651.40
2022-12-25T00:26:27.841Z,99652.61
2022-12-25T00:28:58.458Z,99655.45
2022-12-25T00:31:27.912Z,99663.95
2022-12-25T00:33:56.868Z,99655.89
2022-12-25T00:36:25.520Z,99662.92
2022-12-25T00:38:54.124Z,99664.23
2022-12-25T00:41:42.915Z,99665.55
2022-12-25T00:44:14.027Z,99655.16
2022-12-25T00:46:43.887Z,99661.21
2022-12-25T00:49:12.719Z,99662.42
2022-12-25T00:51:41.508Z,99667.98
2022-12-25T00:54:10.398Z,99666.77
2022-12-25T00:56:40.329Z,99668.38
2022-12-25T00:59:09.408Z,99659.75
2022-12-25T01:01:38.919Z,99668.66
2022-12-25T01:04:09.062Z,99667.15
2022-12-25T01:06:37.978Z,99669.22
2022-12-25T01:09:25.751Z,99668.30
2022-12-25T01:11:54.440Z,99668.25
2022-12-25T01:14:23.233Z,99667.35
2022-12-25T01:16:52.031Z,99665.20
2022-12-25T01:19:20.649Z,99670.66
2022-12-25T01:21:49.212Z,99671.14
2022-12-25T01:24:19.025Z,99671.69
2022-12-25T01:26:47.783Z,99671.19
2022-12-25T01:29:16.807Z,99672.46
2022-12-25T01:31:45.479Z,99671.84
2022-12-25T01:34:14.296Z,99672.46
2022-12-25T01:36:43.037Z,99675.09
2022-12-25T01:39:11.722Z,99671.23
2022-12-25T01:41:40.924Z,99673.20
2022-12-25T01:44:35.614Z,99668.56
2022-12-25T01:47:06.127Z,99668.09
2022-12-25T01:49:39.040Z,99665.03
2022-12-25T01:52:26.097Z,99666.71
2022-12-25T01:55:04.330Z,99666.11
2022-12-25T01:57:36.184Z,99670.38
2022-12-25T02:00:12.093Z,99672.06
2022-12-25T02:02:42.512Z,99674.02
2022-12-25T02:05:27.981Z,99671.97
2022-12-25T02:07:59.900Z,99675.10
2022-12-25T02:10:28.960Z,99672.69
2022-12-25T02:12:57.866Z,99675.35
2022-12-25T02:15:40.840Z,99678.79
2022-12-25T02:18:29.037Z,99677.69
2022-12-25T02:21:19.374Z,99678.85
2022-12-25T02:23:51.268Z,99686.80
2022-12-25T02:26:53.544Z,99688.80
2022-12-25T02:29:37.816Z,99686.50
2022-12-25T02:32:28.997Z,99690.40
2022-12-25T02:35:16.217Z,99688.39
2022-12-25T02:37:57.096Z,99694.83
2022-12-25T02:40:38.488Z,99701.48
2022-12-25T02:43:53.348Z,99700.17
2022-12-25T02:46:43.233Z,99702.16
2022-12-25T02:49:37.587Z,99707.16
2022-12-25T02:52:35.133Z,99709.97
2022-12-25T02:55:32.147Z,99713.41
2022-12-25T02:58:26.386Z,99714.09
2022-12-25T03:01:24.404Z,99720.50
2022-12-25T03:04:16.392Z,99720.09
2022-12-25T03:07:19.178Z,99718.59
2022-12-25T03:10:14.499Z,99722.47
2022-12-25T03:12:55.670Z,99730.16
2022-12-25T03:15:43.248Z,99727.77
2022-12-25T03:18:19.116Z,99729.84
2022-12-25T03:21:07.195Z,99729.92
2022-12-25T03:23:58.192Z,99744.14
2022-12-25T03:26:46.542Z,99746.33
2022-12-25T03:29:35.193Z,99749.91
2022-12-25T03:32:34.248Z,99750.98
2022-12-25T03:35:23.265Z,99760.52
2022-12-25T03:38:47.978Z,99762.20
2022-12-25T03:41:45.105Z,99766.74
2022-12-25T03:44:54.419Z,99767.30
2022-12-25T03:47:57.376Z,99768.60
2022-12-25T03:50:53.769Z,99772.84
2022-12-25T03:53:48.369Z,99770.61
2022-12-25T03:56:37.723Z,99775.06
2022-12-25T03:59:25.288Z,99772.41
2022-12-25T04:02:12.349Z,99780.34
2022-12-25T04:04:59.489Z,99788.59
2022-12-25T04:07:46.918Z,99788.58
2022-12-25T04:10:34.346Z,99786.54
2022-12-25T04:13:22.081Z,99786.63
2022-12-25T04:16:11.572Z,99788.58
2022-12-25T04:18:58.769Z,99794.41
2022-12-25T04:21:46.093Z,99792.75
2022-12-25T04:24:33.441Z,99790.52
2022-12-25T04:27:20.851Z,99793.68
2022-12-25T04:30:08.250Z,99799.59
2022-12-25T04:32:55.584Z,99809.30
2022-12-25T04:35:43.006Z,99818.23
2022-12-25T04:38:12.008Z,99815.77
2022-12-25T04:40:40.695Z,99816.27
2022-12-25T04:43:09.479Z,99813.27
2022-12-25T04:45:38.160Z,99821.06
2022-12-25T04:48:06.950Z,99822.30
2022-12-25T04:50:35.737Z,99822.02
2022-12-25T04:53:04.538Z,99827.64
2022-12-25T04:55:33.210Z,99833.24
2022-12-25T04:58:02.000Z,99838.56
2022-12-25T05:00:30.444Z,99844.02
2022-12-25T05:03:00.640Z,99848.00
2022-12-25T05:05:29.697Z,99843.13
2022-12-25T05:07:58.403Z,99838.45
2022-12-25T05:10:27.073Z,99849.18
2022-12-25T05:12:55.851Z,99854.89
2022-12-25T05:15:24.651Z,99853.77
2022-12-25T05:17:53.429Z,99861.09
2022-12-25T05:20:22.214Z,99860.02
2022-12-25T05:22:51.006Z,99863.22
2022-12-25T05:25:19.693Z,99867.73
2022-12-25T05:27:53.751Z,99867.90
2022-12-25T05:30:22.795Z,99869.71
2022-12-25T05:32:51.585Z,99872.73
2022-12-25T05:35:20.414Z,99879.39
2022-12-25T05:37:49.032Z,99889.48
2022-12-25T05:40:17.947Z,99893.48
2022-12-25T05:42:46.853Z,99891.92
2022-12-25T05:45:15.600Z,99895.98
2022-12-25T05:47:44.414Z,99893.39
2022-12-25T05:50:13.103Z,99896.14
2022-12-25T05:52:41.893Z,99890.50
2022-12-25T05:55:10.674Z,99896.19
2022-12-25T05:57:39.224Z,99901.58
2022-12-25T06:00:09.267Z,99908.59
2022-12-25T06:02:41.083Z,99913.62
2022-12-25T06:05:10.450Z,99915.26
2022-12-25T06:07:39.119Z,99915.05
2022-12-25T06:10:09.445Z,99916.93
2022-12-25T06:12:38.435Z,99919.40
2022-12-25T06:15:08.353Z,99920.52
2022-12-25T06:17:37.142Z,99918.48
2022-12-25T06:20:08.301Z,99924.26
2022-12-25T06:22:36.976Z,99926.48
2022-12-25T06:25:06.751Z,99925.62
2022-12-25T06:27:35.670Z,99935.33
2022-12-25T06:30:06.113Z,99934.83
2022-12-25T06:32:35.122Z,99938.91
2022-12-25T06:35:04.108Z,99937.58
2022-12-25T06:37:32.874Z,99941.83
2022-12-25T06:40:01.609Z,99946.66
2022-12-25T06:42:30.448Z,99949.63
2022-12-25T06:44:59.157Z,99965.94
2022-12-25T06:47:27.821Z,99968.70
2022-12-25T06:49:56.604Z,99963.99
2022-12-25T06:52:25.699Z,99973.16
2022-12-25T06:54:54.488Z,99985.09
2022-12-25T06:57:23.177Z,99985.77
2022-12-25T06:59:55.313Z,99992.91
2022-12-25T07:02:25.344Z,100000.98
2022-12-25T07:04:54.256Z,100003.21
2022-12-25T07:07:23.993Z,100002.96
2022-12-25T07:09:52.679Z,100010.55
2022-12-25T07:12:24.124Z,100010.15
2022-12-25T07:14:55.485Z,100013.91
2022-12-25T07:17:24.730Z,100013.67
2022-12-25T07:19:53.311Z,100012.86
2022-12-25T07:22:22.211Z,100015.15
2022-12-25T07:24:51.119Z,100011.67
2022-12-25T07:27:19.788Z,100014.83
2022-12-25T07:29:48.914Z,100013.46
2022-12-25T07:32:17.775Z,100019.86
2022-12-25T07:34:46.409Z,100020.89
2022-12-25T07:37:15.076Z,100021.45
2022-12-25T07:39:43.908Z,100027.46
2022-12-25T07:42:12.569Z,100034.09
2022-12-25T07:44:41.442Z,100034.83
2022-12-25T07:47:10.005Z,100039.20
2022-12-25T07:49:38.799Z,100042.17
2022-12-25T07:52:07.600Z,100050.48
2022-12-25T07:54:36.290Z,100058.54
2022-12-25T07:57:05.202Z,100058.32
2022-12-25T07:59:33.905Z,100066.48
2022-12-25T08:02:02.931Z,100071.38
2022-12-25T08:04:31.880Z,100082.77
2022-12-25T08:07:00.602Z,100087.92
2022-12-25T08:09:29.448Z,100092.79
2022-12-25T08:11:58.487Z,100100.02
2022-12-25T08:14:27.373Z,100091.52
2022-12-25T08:16:56.092Z,100097.67
2022-12-25T08:19:25.082Z,100094.05
2022-12-25T08:21:54.142Z,100101.70
2022-12-25T08:24:24.576Z,100103.55
2022-12-25T08:26:53.305Z,100101.52
2022-12-25T08:29:22.052Z,100104.32
2022-12-25T08:31:50.848Z,100110.01
2022-12-25T08:34:19.738Z,100108.54
2022-12-25T08:36:48.516Z,100117.23
2022-12-25T08:39:17.235Z,100108.13
2022-12-25T08:41:45.892Z,100118.91
2022-12-25T08:44:14.677Z,100119.56
2022-12-25T08:46:43.535Z,100123.04
2022-12-25T08:49:12.296Z,100132.23
2022-12-25T08:51:40.917Z,100126.36
2022-12-25T08:54:09.621Z,100126.76
2022-12-25T08:56:38.220Z,100132.23
2022-12-25T08:59:06.987Z,100135.89
2022-12-25T09:01:36.067Z,100135.44
2022-12-25T09:04:05.597Z,100138.00
2022-12-25T09:06:34.201Z,100144.33
2022-12-25T09:09:02.979Z,100147.83
2022-12-25T09:11:31.654Z,100151.98
2022-12-25T09:14:01.148Z,100150.20
2022-12-25T09:16:30.043Z,100152.85
2022-12-25T09:18:59.049Z,100151.79
2022-12-25T09:21:27.928Z,100157.86
2022-12-25T09:23:56.618Z,100160.23
2022-12-25T09:26:25.414Z,100159.92
2022-12-25T09:28:54.225Z,100156.12
2022-12-25T09:31:23.769Z,100165.11
2022-12-25T09:33:56.956Z,100179.59
2022-12-25T09:36:26.004Z,100176.47
2022-12-25T09:38:54.771Z,100183.38
2022-12-25T09:41:40.847Z,100181.41
2022-12-25T09:44:22.140Z,100177.83
2022-12-25T09:46:57.844Z,100177.98
2022-12-25T09:49:52.694Z,100177.55
2022-12-25T09:52:38.123Z,100170.49
2022-12-25T09:55:24.378Z,100173.39
2022-12-25T09:57:59.043Z,100174.46
2022-12-25T10:00:42.750Z,100176.23
2022-12-25T10:03:36.125Z,100182.02
2022-12-25T10:06:39.803Z,100166.06
2022-12-25T10:09:47.114Z,100178.45
2022-12-25T10:12:30.647Z,100180.05
2022-12-25T10:15:14.278Z,100179.31
2022-12-25T10:18:26.582Z,100181.96
2022-12-25T10:20:59.260Z,100184.27
2022-12-25T10:23:55.513Z,100178.33
2022-12-25T10:26:25.797Z,100175.66
2022-12-25T10:29:13.032Z,100171.75
2022-12-25T10:31:46.213Z,100173.60
2022-12-25T10:34:16.285Z,100166.98
2022-12-25T10:36:46.473Z,100171.65
2022-12-25T10:39:21.179Z,100177.73
2022-12-25T10:42:31.551Z,100180.83
2022-12-25T10:45:04.545Z,100184.09
2022-12-25T10:47:42.314Z,100187.13
2022-12-25T10:50:20.978Z,100189.61
2022-12-25T10:53:01.276Z,100192.83
2022-12-25T10:55:30.082Z,100191.94
2022-12-25T10:57:59.599Z,100190.53
2022-12-25T11:00:31.873Z,100185.45
2022-12-25T11:03:01.045Z,100194.63
2022-12-25T11:05:37.252Z,100193.35
2022-12-25T11:08:21.927Z,100196.73
2022-12-25T11:10:59.716Z,100202.88
2022-12-25T11:13:30.446Z,100199.80
2022-12-25T11:16:13.842Z,100206.54
2022-12-25T11:18:51.993Z,100208.98
2022-12-25T11:21:26.912Z,100217.48
2022-12-25T11:24:21.908Z,100216.56
2022-12-25T11:26:54.271Z,100218.10
2022-12-25T11:29:41.582Z,100228.12
2022-12-25T11:32:33.621Z,100228.05
2022-12-25T11:35:03.287Z,100223.85
2022-12-25T11:37:54.441Z,100224.17
2022-12-25T11:40:30.194Z,100223.70
2022-12-25T11:43:33.030Z,100221.72
2022-12-25T11:46:18.696Z,100220.91
2022-12-25T11:48:59.734Z,100219.96
2022-12-25T11:51:37.558Z,100230.02
2022-12-25T11:54:32.469Z,100222.58
2022-12-25T11:57:04.856Z,100218.36
2022-12-25T11:59:50.898Z,100234.30
2022-12-25T12:02:43.728Z,100231.19
2022-12-25T12:05:17.593Z,100242.54
2022-12-25T12:08:02.426Z,100243.42
2022-12-25T12:11:17.772Z,100250.16
2022-12-25T12:14:43.451Z,100245.55
2022-12-25T12:17:20.301Z,100253.14
2022-12-25T12:19:49.086Z,100250.87
2022-12-25T12:22:25.576Z,100256.89
2022-12-25T12:25:05.736Z,100250.73
2022-12-25T12:27:41.259Z,100252.46
2022-12-25T12:30:33.244Z,100256.02
2022-12-25T12:33:06.642Z,100260.81
2022-12-25T12:35:40.222Z,100262.00
2022-12-25T12:38:20.371Z,100266.10
2022-12-25T12:41:05.840Z,100269.70
2022-12-25T12:44:01.035Z,100281.60
2022-12-25T12:46:35.914Z,100275.00
2022-12-25T12:49:26.828Z,100280.05
2022-12-25T12:52:07.765Z,100284.80
2022-12-25T12:54:59.698Z,100288.18
2022-12-25T12:57:33.473Z,100296.16
2022-12-25T13:00:10.068Z,100301.29
2022-12-25T13:03:13.196Z,100303.34
2022-12-25T13:06:22.485Z,100302.60
2022-12-25T13:09:24.947Z,100301.42
2022-12-25T13:11:53.889Z,100307.02
2022-12-25T13:14:25.221Z,100316.35
2022-12-25T13:16:55.035Z,100312.04
2022-12-25T13:19:27.887Z,100312.27
2022-12-25T13:22:00.665Z,100312.14
2022-12-25T13:24:35.674Z,100306.31
2022-12-25T13:27:26.586Z,100313.92
2022-12-25T13:29:55.536Z,100320.23
2022-12-25T13:32:31.010Z,100319.17
2022-12-25T13:35:01.070Z,100320.76
2022-12-25T13:37:32.009Z,100332.33
2022-12-25T13:40:06.857Z,100351.72
2022-12-25T13:42:40.248Z,100356.05
2022-12-25T13:45:15.062Z,100358.73
2022-12-25T13:47:49.926Z,100366.03
2022-12-25T13:50:33.422Z,100360.05
2022-12-25T13:53:16.317Z,100371.09
2022-12-25T13:55:51.094Z,100374.02
2022-12-25T13:58:31.775Z,100376.11
2022-12-25T14:01:03.196Z,100382.02
2022-12-25T14:03:41.890Z,100384.38
2022-12-25T14:06:20.934Z,100384.11
2022-12-25T14:08:51.436Z,100382.89
2022-12-25T14:11:23.954Z,100384.76
2022-12-25T14:14:00.297Z,100384.88
2022-12-25T14:16:29.537Z,100390.09
2022-12-25T14:19:01.663Z,100386.61
2022-12-25T14:21:49.461Z,100388.80
2022-12-25T14:24:28.138Z,100391.64
2022-12-25T14:27:17.843Z,100390.88
2022-12-25T14:29:48.733Z,100396.66
2022-12-25T14:32:24.435Z,100394.17
2022-12-25T14:35:01.861Z,100399.32
2022-12-25T14:37:32.946Z,100402.48
2022-12-25T14:40:24.186Z,100406.98
2022-12-25T14:43:02.836Z,100416.74
2022-12-25T14:45:40.911Z,100422.30
2022-12-25T14:48:37.083Z,100430.05
2022-12-25T14:51:15.194Z,100430.25
2022-12-25T14:53:55.136Z,100430.96
2022-12-25T14:56:26.541Z,100424.84
2022-12-25T14:59:00.215Z,100437.22
2022-12-25T15:01:42.245Z,100440.63
2022-12-25T15:04:10.901Z,100441.14
2022-12-25T15:06:52.291Z,100440.77
2022-12-25T15:09:22.080Z,100441.80
2022-12-25T15:11:53.355Z,100445.20
2022-12-25T15:14:23.476Z,100448.04
2022-12-25T15:16:56.943Z,100449.69
2022-12-25T15:19:37.754Z,100449.65
2022-12-25T15:22:07.138Z,100452.41
2022-12-25T15:24:35.815Z,100448.60
2022-12-25T15:27:05.680Z,100450.00
2022-12-25T15:32:24.567Z,100457.09
2022-12-25T15:34:54.123Z,100466.93
2022-12-25T15:37:22.877Z,100470.95
2022-12-25T15:39:51.660Z,100470.32
2022-12-25T15:42:25.206Z,100474.95
2022-12-25T15:44:54.055Z,100472.34
2022-12-25T15:47:23.256Z,100468.70
2022-12-25T15:49:52.059Z,100470.03
2022-12-25T15:52:20.777Z,100467.21
2022-12-25T15:54:49.357Z,100472.70
2022-12-25T15:57:22.472Z,100477.80
2022-12-25T15:59:51.257Z,100482.05
2022-12-25T16:02:21.450Z,100484.02
2022-12-25T16:04:51.321Z,100483.76
2022-12-25T16:07:21.991Z,100486.38
2022-12-25T16:09:51.220Z,100487.27
2022-12-25T16:12:20.338Z,100492.64
2022-12-25T16:14:49.113Z,100476.85
2022-12-25T16:17:17.719Z,100485.65
2022-12-25T16:19:46.537Z,100483.67
2022-12-25T16:22:22.357Z,100481.02
2022-12-25T16:24:52.039Z,100486.14
2022-12-25T16:27:21.696Z,100494.71
2022-12-25T16:29:50.328Z,100495.49
2022-12-25T16:32:18.919Z,100497.98
2022-12-25T16:34:49.296Z,100500.56
2022-12-25T16:37:18.157Z,100503.84
2022-12-25T16:39:46.779Z,100507.08
2022-12-25T16:42:15.830Z,100508.08
2022-12-25T16:44:45.066Z,100515.12
2022-12-25T16:47:13.823Z,100521.66
2022-12-25T16:49:42.404Z,100520.33
2022-12-25T16:52:11.220Z,100520.20
2022-12-25T16:54:39.811Z,100521.69
2022-12-25T16:57:08.558Z,100520.27
2022-12-25T16:59:37.452Z,100525.44
2022-12-25T17:02:06.426Z,100517.02
2022-12-25T17:04:35.444Z,100519.33
2022-12-25T17:07:04.737Z,100528.21
2022-12-25T17:09:35.379Z,100536.13
2022-12-25T17:12:08.335Z,100539.21
2022-12-25T17:14:37.097Z,100538.06
2022-12-25T17:17:05.808Z,100531.98
2022-12-25T17:19:34.716Z,100541.15
2022-12-25T17:22:03.403Z,100543.55
2022-12-25T17:24:33.729Z,100539.63
2022-12-25T17:27:02.632Z,100545.27
2022-12-25T17:29:32.109Z,100541.25
2022-12-25T17:32:00.754Z,100540.94
2022-12-25T17:34:29.446Z,100540.23
2022-12-25T17:36:58.181Z,100539.66
2022-12-25T17:39:26.976Z,100550.78
2022-12-25T17:41:55.739Z,100555.41
2022-12-25T17:44:24.469Z,100555.15
2022-12-25T17:46:53.380Z,100559.61
2022-12-25T17:49:22.737Z,100558.79
2022-12-25T17:51:51.517Z,100560.77
2022-12-25T17:54:20.119Z,100552.73
2022-12-25T17:56:49.710Z,100559.42
2022-12-25T17:59:19.019Z,100558.11
2022-12-25T18:01:49.412Z,100560.41
2022-12-25T18:04:18.557Z,100554.30
2022-12-25T18:06:47.280Z,100550.70
2022-12-25T18:09:16.317Z,100551.20
2022-12-25T18:11:45.072Z,100542.20
2022-12-25T18:14:16.357Z,100545.98
2022-12-25T18:16:46.240Z,100543.52
2022-12-25T18:19:16.238Z,100549.02
2022-12-25T18:21:45.194Z,100554.05
2022-12-25T18:24:14.372Z,100554.87
2022-12-25T18:26:42.948Z,100562.16
2022-12-25T18:29:11.708Z,100562.45
2022-12-25T18:31:40.477Z,100564.91
2022-12-25T18:34:09.339Z,100567.20
2022-12-25T18:36:38.304Z,100574.25
2022-12-25T18:39:07.090Z,100576.86
2022-12-25T18:41:55.854Z,100583.88
2022-12-25T18:44:24.620Z,100585.27
2022-12-25T18:46:53.320Z,100580.41
2022-12-25T18:49:23.065Z,100569.25
2022-12-25T18:51:51.818Z,100579.44
2022-12-25T18:54:20.606Z,100579.39
2022-12-25T18:56:53.529Z,100580.23
2022-12-25T18:59:22.602Z,100584.21
2022-12-25T19:01:52.542Z,100580.96
2022-12-25T19:04:21.752Z,100590.28
2022-12-25T19:06:51.782Z,100596.55
2022-12-25T19:09:20.605Z,100599.84
2022-12-25T19:11:49.305Z,100598.16
2022-12-25T19:14:18.085Z,100600.91
2022-12-25T19:16:49.489Z,100601.34
2022-12-25T19:19:18.374Z,100605.56
2022-12-25T19:21:52.312Z,100607.48
2022-12-25T19:24:24.090Z,100610.74
2022-12-25T19:26:52.711Z,100611.81
2022-12-25T19:29:21.310Z,100611.00
2022-12-25T19:31:50.214Z,100618.80
2022-12-25T19:34:19.065Z,100621.36
2022-12-25T19:36:48.126Z,100624.11
2022-12-25T19:39:17.381Z,100626.89
2022-12-25T19:41:46.103Z,100633.63
2022-12-25T19:44:15.047Z,100639.77
2022-12-25T19:46:43.735Z,100647.77
2022-12-25T19:49:14.221Z,100660.17
2022-12-25T19:51:46.355Z,100665.78
2022-12-25T19:54:20.754Z,100669.04
2022-12-25T19:56:49.903Z,100669.81
2022-12-25T19:59:18.558Z,100673.27
2022-12-25T20:01:47.456Z,100673.90
2022-12-25T20:04:18.322Z,100672.39
2022-12-25T20:06:47.204Z,100671.11
2022-12-25T20:09:21.548Z,100669.51
2022-12-25T20:11:50.732Z,100667.57
2022-12-25T20:14:20.022Z,100671.65
2022-12-25T20:16:49.916Z,100673.44
2022-12-25T20:19:18.752Z,100675.70
2022-12-25T20:21:47.701Z,100677.80
2022-12-25T20:24:16.499Z,100673.37
2022-12-25T20:26:47.816Z,100676.69
2022-12-25T20:29:16.862Z,100677.19
2022-12-25T20:31:45.757Z,100685.26
2022-12-25T20:34:14.658Z,100687.55
2022-12-25T20:36:45.566Z,100680.09
2022-12-25T20:39:14.458Z,100674.98
2022-12-25T20:41:44.665Z,100672.21
2022-12-25T20:44:13.765Z,100676.49
2022-12-25T20:46:43.071Z,100677.34
2022-12-25T20:49:12.673Z,100666.38
2022-12-25T20:51:41.362Z,100677.44
2022-12-25T20:54:11.090Z,100671.01
2022-12-25T20:56:40.831Z,100681.08
2022-12-25T20:59:09.924Z,100682.95
2022-12-25T21:01:40.995Z,100697.34
2022-12-25T21:04:14.565Z,100695.02
2022-12-25T21:06:45.657Z,100693.09
2022-12-25T21:09:14.675Z,100695.27
2022-12-25T21:11:43.674Z,100695.44
2022-12-25T21:14:12.315Z,100698.69
2022-12-25T21:16:41.221Z,100696.42
2022-12-25T21:19:10.009Z,100696.08
2022-12-25T21:21:42.873Z,100698.94
2022-12-25T21:24:11.638Z,100697.46
2022-12-25T21:26:46.085Z,100701.73
2022-12-25T21:29:18.255Z,100707.52
2022-12-25T21:32:05.726Z,100706.83
2022-12-25T21:34:34.593Z,100708.84
2022-12-25T21:37:03.985Z,100706.25
2022-12-25T21:39:32.776Z,100706.45
2022-12-25T21:42:04.721Z,100711.96
2022-12-25T21:44:34.139Z,100720.92
2022-12-25T21:47:02.872Z,100720.06
2022-12-25T21:49:49.942Z,100720.47
2022-12-25T21:52:18.728Z,100723.45
2022-12-25T21:54:47.515Z,100727.18
2022-12-25T21:57:16.182Z,100727.02
2022-12-25T21:59:46.358Z,100730.26
2022-12-25T22:02:15.092Z,100730.52
2022-12-25T22:04:44.001Z,100728.04
2022-12-25T22:07:19.882Z,100732.13
2022-12-25T22:09:51.719Z,100726.27
2022-12-25T22:12:39.836Z,100729.80
2022-12-25T22:15:10.416Z,100724.98
2022-12-25T22:18:01.991Z,100728.34
2022-12-25T22:20:39.104Z,100732.24
2022-12-25T22:23:07.741Z,100735.79
2022-12-25T22:25:36.671Z,100729.41
2022-12-25T22:28:05.515Z,100730.98
2022-12-25T22:30:34.481Z,100731.84
2022-12-25T22:33:03.379Z,100733.38
2022-12-25T22:35:32.061Z,100724.86
2022-12-25T22:38:00.839Z,100720.56
2022-12-25T22:40:29.571Z,100727.63
2022-12-25T22:42:58.693Z,100733.72
2022-12-25T22:45:27.479Z,100739.28
2022-12-25T22:47:56.178Z,100741.30
2022-12-25T22:50:24.965Z,100730.58
2022-12-25T22:52:53.984Z,100725.98
2022-12-25T22:55:22.800Z,100727.77
2022-12-25T22:57:52.345Z,100729.83
2022-12-25T23:00:20.959Z,100747.59
2022-12-25T23:02:49.765Z,100750.97
2022-12-25T23:05:18.788Z,100748.67
2022-12-25T23:07:47.604Z,100756.41
2022-12-25T23:10:16.425Z,100765.73
2022-12-25T23:13:03.503Z,100758.19
2022-12-25T23:15:32.870Z,100744.63
2022-12-25T23:18:20.336Z,100750.52
2022-12-25T23:21:09.061Z,100759.35
2022-12-25T23:23:55.975Z,100758.21
2022-12-25T23:26:24.456Z,100760.30
2022-12-25T23:29:43.031Z,100753.45
2022-12-25T23:32:22.687Z,100751.40
2022-12-25T23:34:52.724Z,100747.08
2022-12-25T23:37:21.888Z,100741.06
2022-12-25T23:39:50.583Z,100746.41
2022-12-25T23:42:19.583Z,100739.67
2022-12-25T23:44:48.567Z,100743.36
2022-12-25T23:47:17.453Z,100754.27
2022-12-25T23:49:46.381Z,100770.80
2022-12-25T23:52:15.457Z,100777.98
2022-12-25T23:54:44.157Z,100789.04
2022-12-25T23:57:13.531Z,100789.27
2022-12-25T23:59:42.317Z,100775.48
